createdAt,value
2018-11-27T00:00:29.425Z,27.23
2018-11-27T00:06:33.060Z,27.33
2018-11-27T00:12:36.587Z,27.63
2018-11-27T00:18:40.319Z,27.63
2018-11-27T00:24:43.976Z,26.83
2018-11-27T00:30:47.331Z,28.90
2018-11-27T00:36:50.679Z,27.67
2018-11-27T00:42:54.026Z,27.13
2018-11-27T00:48:57.392Z,27.80
2018-11-27T00:55:01.048Z,27.70
2018-11-27T01:01:04.503Z,28.93
2018-11-27T01:07:08.272Z,28.03
2018-11-27T01:13:11.644Z,26.80
2018-11-27T01:19:14.952Z,28.40
2018-11-27T01:25:18.335Z,27.70
2018-11-27T01:31:21.658Z,26.93
2018-11-27T01:37:25.136Z,27.47
2018-11-27T01:43:28.459Z,27.70
2018-11-27T01:49:31.823Z,29.33
2018-11-27T01:55:35.441Z,28.93
2018-11-27T02:01:42.640Z,28.07
2018-11-27T02:07:46.379Z,28.03
2018-11-27T02:13:49.720Z,30.27
2018-11-27T02:19:53.116Z,28.87
2018-11-27T02:25:57.192Z,28.37
2018-11-27T02:32:00.871Z,28.13
2018-11-27T02:38:04.499Z,29.00
2018-11-27T02:44:07.811Z,29.00
2018-11-27T02:50:14.927Z,28.10
2018-11-27T02:56:18.335Z,29.07
2018-11-27T03:02:21.698Z,29.13
2018-11-27T03:08:25.144Z,28.60
2018-11-27T03:14:28.663Z,28.33
2018-11-27T03:20:32.083Z,27.93
2018-11-27T03:26:35.364Z,27.93
2018-11-27T03:32:38.678Z,27.83
2018-11-27T03:38:42.133Z,27.93
2018-11-27T03:44:45.451Z,27.97
2018-11-27T03:50:48.775Z,27.67
2018-11-27T03:56:52.172Z,28.63
2018-11-27T04:03:00.914Z,28.00
2018-11-27T04:09:07.564Z,27.23
2018-11-27T04:15:12.171Z,27.97
2018-11-27T04:21:19.808Z,26.70
2018-11-27T04:27:23.516Z,25.30
2018-11-27T04:33:26.993Z,27.13
2018-11-27T04:39:30.330Z,26.30
2018-11-27T04:45:34.577Z,26.30
2018-11-27T04:51:37.888Z,25.83
2018-11-27T04:57:41.617Z,25.53
2018-11-27T05:03:45.003Z,26.17
2018-11-27T05:09:49.997Z,26.83
2018-11-27T05:15:53.343Z,26.57
2018-11-27T05:21:56.722Z,26.87
2018-11-27T05:28:00.182Z,25.73
2018-11-27T05:34:03.581Z,26.77
2018-11-27T05:40:12.793Z,25.43
2018-11-27T05:46:16.194Z,26.77
2018-11-27T05:52:19.552Z,25.07
2018-11-27T05:58:22.921Z,26.47
2018-11-27T06:04:26.275Z,24.20
2018-11-27T06:10:30.087Z,23.90
2018-11-27T06:16:33.743Z,24.20
2018-11-27T06:22:43.953Z,25.53
2018-11-27T06:28:47.333Z,24.87
2018-11-27T06:34:50.740Z,31.80
2018-11-27T06:40:54.527Z,25.47
2018-11-27T06:46:57.972Z,23.10
2018-11-27T06:53:02.172Z,24.20
2018-11-27T06:59:06.502Z,23.43
2018-11-27T07:05:11.979Z,24.53
2018-11-27T07:11:21.947Z,23.47
2018-11-27T07:17:25.288Z,22.07
2018-11-27T07:23:28.648Z,22.37
2018-11-27T07:29:31.969Z,21.77
2018-11-27T07:35:36.556Z,21.50
2018-11-27T07:41:39.929Z,23.20
2018-11-27T07:47:43.257Z,22.53
2018-11-27T07:53:47.381Z,22.20
2018-11-27T07:59:51.700Z,22.33
2018-11-27T08:05:55.090Z,21.37
2018-11-27T08:11:58.496Z,22.13
2018-11-27T08:18:01.834Z,22.30
2018-11-27T08:24:05.952Z,22.20
2018-11-27T08:30:14.169Z,21.30
2018-11-27T08:36:17.522Z,21.03
2018-11-27T08:42:20.872Z,21.33
2018-11-27T08:48:24.272Z,21.33
2018-11-27T08:54:27.590Z,21.63
2018-11-27T09:00:30.931Z,21.50
2018-11-27T09:06:34.327Z,18.40
2018-11-27T09:12:37.657Z,19.50
2018-11-27T09:18:41.057Z,20.00
2018-11-27T09:24:44.410Z,19.27
2018-11-27T09:30:48.048Z,18.97
2018-11-27T09:36:51.940Z,19.07
2018-11-27T09:42:55.499Z,18.67
2018-11-27T09:48:59.414Z,19.87
2018-11-27T09:55:03.067Z,19.10
2018-11-27T10:01:07.252Z,18.07
2018-11-27T10:07:11.102Z,18.70
2018-11-27T10:13:14.474Z,18.67
2018-11-27T10:19:17.879Z,19.77
2018-11-27T10:25:21.796Z,19.23
2018-11-27T10:31:25.108Z,18.93
2018-11-27T10:37:28.455Z,18.17
2018-11-27T10:43:31.839Z,19.40
2018-11-27T10:49:36.249Z,17.87
2018-11-27T10:55:39.668Z,18.30
2018-11-27T11:01:48.629Z,17.73
2018-11-27T11:07:52.297Z,17.10
2018-11-27T11:13:56.085Z,18.43
2018-11-27T11:19:59.428Z,16.73
2018-11-27T11:26:03.475Z,16.73
2018-11-27T11:32:08.898Z,16.80
2018-11-27T11:38:12.207Z,17.03
2018-11-27T11:44:15.566Z,17.47
2018-11-27T11:50:21.788Z,17.73
2018-11-27T11:56:25.117Z,16.67
2018-11-27T12:02:28.447Z,17.67
2018-11-27T12:08:32.159Z,17.90
2018-11-27T12:14:35.494Z,16.30
2018-11-27T12:20:40.226Z,16.23
2018-11-27T12:26:43.528Z,16.07
2018-11-27T12:32:46.825Z,17.07
2018-11-27T12:38:50.199Z,16.27
2018-11-27T12:44:53.623Z,16.23
2018-11-27T12:50:56.981Z,16.93
2018-11-27T12:57:01.226Z,16.33
2018-11-27T13:03:05.483Z,16.13
2018-11-27T13:09:10.384Z,15.83
2018-11-27T13:15:18.253Z,15.63
2018-11-27T13:21:22.312Z,15.43
2018-11-27T13:27:25.702Z,16.43
2018-11-27T13:33:33.699Z,16.80
2018-11-27T13:39:38.298Z,16.77
2018-11-27T13:45:41.697Z,15.07
2018-11-27T13:51:45.616Z,16.70
2018-11-27T13:57:49.155Z,16.30
2018-11-27T14:03:52.821Z,15.70
2018-11-27T14:09:56.303Z,15.03
2018-11-27T14:15:59.716Z,15.97
2018-11-27T14:22:03.358Z,16.83
2018-11-27T14:28:06.759Z,15.87
2018-11-27T14:34:28.818Z,15.63
2018-11-27T14:40:32.340Z,15.43
2018-11-27T14:46:35.688Z,15.90
2018-11-27T14:52:39.164Z,16.50
2018-11-27T14:58:43.259Z,14.73
2018-11-27T15:04:47.331Z,14.63
2018-11-27T15:10:51.015Z,15.50
2018-11-27T15:16:55.388Z,15.27
2018-11-27T15:22:58.806Z,16.97
2018-11-27T15:29:02.205Z,15.57
2018-11-27T15:35:06.527Z,16.30
2018-11-27T15:41:09.949Z,15.50
2018-11-27T15:47:15.664Z,16.23
2018-11-27T15:53:20.637Z,16.60
2018-11-27T15:59:23.985Z,17.07
2018-11-27T16:05:27.368Z,16.73
2018-11-27T16:11:30.739Z,17.37
2018-11-27T16:17:34.192Z,16.57
2018-11-27T16:23:37.908Z,17.40
2018-11-27T16:29:41.351Z,17.30
2018-11-27T16:35:49.316Z,16.57
2018-11-27T16:41:53.474Z,16.90
2018-11-27T16:47:57.382Z,17.73
2018-11-27T16:54:00.768Z,17.47
2018-11-27T17:00:18.346Z,18.37
2018-11-27T17:06:21.952Z,18.10
2018-11-27T17:12:25.702Z,19.40
2018-11-27T17:18:29.813Z,20.77
2018-11-27T17:24:33.909Z,19.73
2018-11-27T17:30:42.354Z,17.93
2018-11-27T17:36:46.925Z,18.83
2018-11-27T17:42:50.295Z,20.20
2018-11-27T17:48:53.974Z,20.23
2018-11-27T17:54:59.718Z,19.90
2018-11-27T18:01:04.710Z,19.57
2018-11-27T18:07:08.564Z,18.37
2018-11-27T18:13:12.033Z,19.50
2018-11-27T18:19:15.337Z,17.73
2018-11-27T18:25:19.608Z,18.60
2018-11-27T18:31:23.131Z,17.33
2018-11-27T18:37:26.636Z,18.13
2018-11-27T18:43:30.088Z,18.23
2018-11-27T18:49:34.393Z,20.40
2018-11-27T18:55:37.815Z,18.20
2018-11-27T19:01:46.790Z,18.57
2018-11-27T19:07:50.233Z,16.63
2018-11-27T19:13:53.687Z,17.80
2018-11-27T19:19:57.841Z,18.37
2018-11-27T19:26:01.428Z,16.60
2018-11-27T19:32:04.983Z,17.07
2018-11-27T19:38:11.774Z,17.07
2018-11-27T19:44:15.634Z,18.13
2018-11-27T19:50:19.575Z,18.33
2018-11-27T19:56:23.248Z,17.07
2018-11-27T20:02:26.670Z,16.27
2018-11-27T20:08:34.565Z,17.03
2018-11-27T20:14:38.506Z,17.30
2018-11-27T20:20:41.970Z,17.13
2018-11-27T20:26:45.520Z,18.13
2018-11-27T20:32:56.674Z,18.23
2018-11-27T20:39:00.748Z,16.87
2018-11-27T20:45:03.951Z,16.33
2018-11-27T20:51:08.742Z,15.17
2018-11-27T20:57:12.517Z,17.00
2018-11-27T21:03:17.829Z,17.80
2018-11-27T21:09:21.371Z,16.93
2018-11-27T21:15:25.089Z,16.77
2018-11-27T21:21:28.673Z,17.03
2018-11-27T21:27:32.477Z,18.27
2018-11-27T21:33:36.915Z,16.97
2018-11-27T21:39:40.631Z,17.53
2018-11-27T21:45:44.689Z,16.77
2018-11-27T21:51:48.355Z,16.50
2018-11-27T21:57:51.887Z,17.57
2018-11-27T22:03:55.492Z,17.40
2018-11-27T22:09:59.036Z,16.73
2018-11-27T22:16:02.485Z,17.23
2018-11-27T22:22:06.074Z,17.33
2018-11-27T22:28:10.062Z,16.73
2018-11-27T22:34:13.683Z,15.27
2018-11-27T22:40:19.153Z,16.90
2018-11-27T22:46:23.562Z,17.13
2018-11-27T22:52:26.954Z,16.00
2018-11-27T22:58:30.396Z,16.30
2018-11-27T23:04:34.056Z,16.40
2018-11-27T23:10:39.210Z,16.00
2018-11-27T23:16:42.744Z,16.30
2018-11-27T23:22:46.270Z,16.37
2018-11-27T23:28:50.098Z,16.90
2018-11-27T23:34:53.480Z,16.80
2018-11-27T23:40:56.812Z,16.30
2018-11-27T23:47:00.185Z,16.83
2018-11-27T23:53:03.634Z,14.40
2018-11-27T23:59:06.987Z,15.37
